sensor_id;sensor_type;location;lat;lon;timestamp;temperature;humidity
1936;DHT22;969;49.892;10.896;2022-09-03T00:02:30;23.60;42.00
1936;DHT22;969;49.892;10.896;2022-09-03T00:05:22;23.60;42.10
1936;DHT22;969;49.892;10.896;2022-09-03T00:08:26;23.60;42.10
1936;DHT22;969;49.892;10.896;2022-09-03T00:11:30;23.60;42.00
1936;DHT22;969;49.892;10.896;2022-09-03T00:16:30;23.60;42.10
1936;DHT22;969;49.892;10.896;2022-09-03T00:19:01;23.60;42.20
1936;DHT22;969;49.892;10.896;2022-09-03T00:21:40;23.60;42.20
1936;DHT22;969;49.892;10.896;2022-09-03T00:24:11;23.60;42.20
1936;DHT22;969;49.892;10.896;2022-09-03T00:26:39;23.60;42.20
1936;DHT22;969;49.892;10.896;2022-09-03T00:29:17;23.60;42.20
1936;DHT22;969;49.892;10.896;2022-09-03T00:31:49;23.60;42.20
1936;DHT22;969;49.892;10.896;2022-09-03T00:34:29;23.60;42.20
1936;DHT22;969;49.892;10.896;2022-09-03T00:37:05;23.60;42.20
1936;DHT22;969;49.892;10.896;2022-09-03T00:39:32;23.60;42.20
1936;DHT22;969;49.892;10.896;2022-09-03T00:56:47;23.60;42.20
1936;DHT22;969;49.892;10.896;2022-09-03T00:59:21;23.60;42.20
1936;DHT22;969;49.892;10.896;2022-09-03T01:05:05;23.60;42.30
1936;DHT22;969;49.892;10.896;2022-09-03T01:13:21;23.60;42.40
1936;DHT22;969;49.892;10.896;2022-09-03T01:15:52;23.60;42.40
1936;DHT22;969;49.892;10.896;2022-09-03T01:30:18;23.70;42.50
1936;DHT22;969;49.892;10.896;2022-09-03T01:32:55;23.70;42.50
1936;DHT22;969;49.892;10.896;2022-09-03T01:41:12;23.70;42.50
1936;DHT22;969;49.892;10.896;2022-09-03T01:46:51;23.70;42.50
1936;DHT22;969;49.892;10.896;2022-09-03T01:52:20;23.70;42.50
1936;DHT22;969;49.892;10.896;2022-09-03T01:57:59;23.70;42.50
1936;DHT22;969;49.892;10.896;2022-09-03T02:00:32;23.70;42.50
1936;DHT22;969;49.892;10.896;2022-09-03T02:03:03;23.70;42.50
1936;DHT22;969;49.892;10.896;2022-09-03T02:05:31;23.70;42.50
1936;DHT22;969;49.892;10.896;2022-09-03T02:08:07;23.70;42.50
1936;DHT22;969;49.892;10.896;2022-09-03T02:10:53;23.80;42.60
1936;DHT22;969;49.892;10.896;2022-09-03T02:13:23;23.80;42.60
1936;DHT22;969;49.892;10.896;2022-09-03T02:16:01;23.70;42.50
1936;DHT22;969;49.892;10.896;2022-09-03T02:18:34;23.70;42.60
1936;DHT22;969;49.892;10.896;2022-09-03T02:21:15;23.80;42.70
1936;DHT22;969;49.892;10.896;2022-09-03T02:23:45;23.70;42.60
1936;DHT22;969;49.892;10.896;2022-09-03T02:26:17;23.80;42.70
1936;DHT22;969;49.892;10.896;2022-09-03T02:28:44;23.80;42.70
1936;DHT22;969;49.892;10.896;2022-09-03T02:31:13;23.80;42.70
1936;DHT22;969;49.892;10.896;2022-09-03T02:33:42;23.80;42.70
1936;DHT22;969;49.892;10.896;2022-09-03T02:36:11;23.80;42.80
1936;DHT22;969;49.892;10.896;2022-09-03T02:38:39;23.80;42.70
1936;DHT22;969;49.892;10.896;2022-09-03T02:41:06;23.80;42.70
1936;DHT22;969;49.892;10.896;2022-09-03T02:46:27;23.80;42.70
1936;DHT22;969;49.892;10.896;2022-09-03T02:49:05;23.80;42.60
1936;DHT22;969;49.892;10.896;2022-09-03T02:51:43;23.80;42.70
1936;DHT22;969;49.892;10.896;2022-09-03T02:54:17;23.80;42.60
1936;DHT22;969;49.892;10.896;2022-09-03T02:56:52;23.80;42.60
1936;DHT22;969;49.892;10.896;2022-09-03T02:59:24;23.80;42.60
1936;DHT22;969;49.892;10.896;2022-09-03T03:01:53;23.80;42.60
1936;DHT22;969;49.892;10.896;2022-09-03T03:04:20;23.80;42.60
1936;DHT22;969;49.892;10.896;2022-09-03T03:06:46;23.80;42.60
1936;DHT22;969;49.892;10.896;2022-09-03T03:09:16;23.80;42.60
1936;DHT22;969;49.892;10.896;2022-09-03T03:11:43;23.80;42.60
1936;DHT22;969;49.892;10.896;2022-09-03T03:14:12;23.80;42.60
1936;DHT22;969;49.892;10.896;2022-09-03T03:16:44;23.80;42.70
1936;DHT22;969;49.892;10.896;2022-09-03T03:19:14;23.80;42.60
1936;DHT22;969;49.892;10.896;2022-09-03T03:21:40;23.80;42.60
1936;DHT22;969;49.892;10.896;2022-09-03T03:24:09;23.80;42.60
1936;DHT22;969;49.892;10.896;2022-09-03T03:26:50;23.80;42.70
1936;DHT22;969;49.892;10.896;2022-09-03T03:29:19;23.80;42.70
1936;DHT22;969;49.892;10.896;2022-09-03T03:31:46;23.80;42.60
1936;DHT22;969;49.892;10.896;2022-09-03T03:34:12;23.80;42.60
1936;DHT22;969;49.892;10.896;2022-09-03T03:36:39;23.80;42.70
1936;DHT22;969;49.892;10.896;2022-09-03T03:39:05;23.80;42.70
1936;DHT22;969;49.892;10.896;2022-09-03T03:41:34;23.80;42.70
1936;DHT22;969;49.892;10.896;2022-09-03T03:44:06;23.80;42.70
1936;DHT22;969;49.892;10.896;2022-09-03T03:46:39;23.80;42.80
1936;DHT22;969;49.892;10.896;2022-09-03T03:49:06;23.80;42.70
1936;DHT22;969;49.892;10.896;2022-09-03T03:51:33;23.80;42.80
1936;DHT22;969;49.892;10.896;2022-09-03T03:54:00;23.80;42.80
1936;DHT22;969;49.892;10.896;2022-09-03T03:56:26;23.80;42.80
1936;DHT22;969;49.892;10.896;2022-09-03T03:58:55;23.80;42.70
1936;DHT22;969;49.892;10.896;2022-09-03T04:01:25;23.80;42.70
1936;DHT22;969;49.892;10.896;2022-09-03T04:03:53;23.80;42.70
1936;DHT22;969;49.892;10.896;2022-09-03T04:06:20;23.80;42.80
1936;DHT22;969;49.892;10.896;2022-09-03T04:08:47;23.80;42.80
1936;DHT22;969;49.892;10.896;2022-09-03T04:11:21;23.80;42.80
1936;DHT22;969;49.892;10.896;2022-09-03T04:13:48;23.80;42.80
1936;DHT22;969;49.892;10.896;2022-09-03T04:16:16;23.80;42.80
1936;DHT22;969;49.892;10.896;2022-09-03T04:18:48;23.70;42.80
1936;DHT22;969;49.892;10.896;2022-09-03T04:21:29;23.80;42.90
1936;DHT22;969;49.892;10.896;2022-09-03T04:23:57;23.80;43.40
1936;DHT22;969;49.892;10.896;2022-09-03T04:26:32;23.70;42.80
1936;DHT22;969;49.892;10.896;2022-09-03T04:29:00;23.70;42.80
1936;DHT22;969;49.892;10.896;2022-09-03T04:31:30;23.70;42.80
1936;DHT22;969;49.892;10.896;2022-09-03T04:33:57;23.70;42.80
1936;DHT22;969;49.892;10.896;2022-09-03T04:36:28;23.70;42.80
1936;DHT22;969;49.892;10.896;2022-09-03T04:39:09;23.70;42.80
1936;DHT22;969;49.892;10.896;2022-09-03T04:41:47;23.80;42.90
1936;DHT22;969;49.892;10.896;2022-09-03T04:44:14;23.70;42.90
1936;DHT22;969;49.892;10.896;2022-09-03T04:46:41;23.80;42.90
1936;DHT22;969;49.892;10.896;2022-09-03T04:49:07;23.80;43.00
1936;DHT22;969;49.892;10.896;2022-09-03T04:51:34;23.80;42.90
1936;DHT22;969;49.892;10.896;2022-09-03T04:54:04;23.80;42.90
1936;DHT22;969;49.892;10.896;2022-09-03T04:56:32;23.80;42.90
1936;DHT22;969;49.892;10.896;2022-09-03T05:02:40;23.80;43.00
1936;DHT22;969;49.892;10.896;2022-09-03T05:05:09;23.70;42.90
1936;DHT22;969;49.892;10.896;2022-09-03T05:07:36;23.70;42.90
1936;DHT22;969;49.892;10.896;2022-09-03T05:10:12;23.70;42.90
1936;DHT22;969;49.892;10.896;2022-09-03T05:12:59;23.70;43.00
1936;DHT22;969;49.892;10.896;2022-09-03T05:15:25;23.70;42.90
1936;DHT22;969;49.892;10.896;2022-09-03T05:17:57;23.70;43.00
1936;DHT22;969;49.892;10.896;2022-09-03T05:20:24;23.70;43.00
1936;DHT22;969;49.892;10.896;2022-09-03T05:22:50;23.70;43.10
1936;DHT22;969;49.892;10.896;2022-09-03T05:25:18;23.70;43.00
1936;DHT22;969;49.892;10.896;2022-09-03T05:27:44;23.70;43.00
1936;DHT22;969;49.892;10.896;2022-09-03T05:30:11;23.70;43.00
1936;DHT22;969;49.892;10.896;2022-09-03T05:32:37;23.70;43.00
1936;DHT22;969;49.892;10.896;2022-09-03T05:35:07;23.70;43.00
1936;DHT22;969;49.892;10.896;2022-09-03T05:37:33;23.70;43.00
1936;DHT22;969;49.892;10.896;2022-09-03T05:40:01;23.70;43.00
1936;DHT22;969;49.892;10.896;2022-09-03T05:42:27;23.70;43.00
1936;DHT22;969;49.892;10.896;2022-09-03T05:44:53;23.70;43.00
1936;DHT22;969;49.892;10.896;2022-09-03T05:47:20;23.70;43.00
1936;DHT22;969;49.892;10.896;2022-09-03T05:49:53;23.70;43.00
1936;DHT22;969;49.892;10.896;2022-09-03T05:52:19;23.70;43.00
1936;DHT22;969;49.892;10.896;2022-09-03T05:54:50;23.70;43.00
1936;DHT22;969;49.892;10.896;2022-09-03T05:57:16;23.70;43.10
1936;DHT22;969;49.892;10.896;2022-09-03T05:59:42;23.70;43.10
1936;DHT22;969;49.892;10.896;2022-09-03T06:02:18;23.70;43.10
1936;DHT22;969;49.892;10.896;2022-09-03T06:04:47;23.60;43.10
1936;DHT22;969;49.892;10.896;2022-09-03T06:07:23;23.70;43.10
1936;DHT22;969;49.892;10.896;2022-09-03T06:09:52;23.70;43.10
1936;DHT22;969;49.892;10.896;2022-09-03T06:12:19;23.70;43.10
1936;DHT22;969;49.892;10.896;2022-09-03T06:14:50;23.70;43.10
1936;DHT22;969;49.892;10.896;2022-09-03T06:17:16;23.70;43.10
1936;DHT22;969;49.892;10.896;2022-09-03T06:19:42;23.70;43.10
1936;DHT22;969;49.892;10.896;2022-09-03T06:22:09;23.70;43.20
1936;DHT22;969;49.892;10.896;2022-09-03T06:24:36;23.70;43.20
1936;DHT22;969;49.892;10.896;2022-09-03T06:27:05;23.70;43.10
1936;DHT22;969;49.892;10.896;2022-09-03T06:29:31;23.70;43.10
1936;DHT22;969;49.892;10.896;2022-09-03T06:31:57;23.70;43.10
1936;DHT22;969;49.892;10.896;2022-09-03T06:34:29;23.70;43.00
1936;DHT22;969;49.892;10.896;2022-09-03T06:36:58;23.70;43.00
1936;DHT22;969;49.892;10.896;2022-09-03T06:39:24;23.70;43.60
1936;DHT22;969;49.892;10.896;2022-09-03T06:41:51;23.60;42.90
1936;DHT22;969;49.892;10.896;2022-09-03T06:44:18;23.60;42.90
1936;DHT22;969;49.892;10.896;2022-09-03T06:46:43;23.60;42.90
1936;DHT22;969;49.892;10.896;2022-09-03T06:49:11;23.60;43.00
1936;DHT22;969;49.892;10.896;2022-09-03T06:51:40;23.70;43.10
1936;DHT22;969;49.892;10.896;2022-09-03T06:54:10;23.70;43.10
1936;DHT22;969;49.892;10.896;2022-09-03T06:56:38;23.60;43.10
1936;DHT22;969;49.892;10.896;2022-09-03T06:59:08;23.70;43.10
1936;DHT22;969;49.892;10.896;2022-09-03T07:01:34;23.70;43.10
1936;DHT22;969;49.892;10.896;2022-09-03T07:04:04;23.70;43.10
1936;DHT22;969;49.892;10.896;2022-09-03T07:06:32;23.70;43.10
1936;DHT22;969;49.892;10.896;2022-09-03T07:09:10;23.70;43.10
1936;DHT22;969;49.892;10.896;2022-09-03T07:11:36;23.70;43.10
1936;DHT22;969;49.892;10.896;2022-09-03T07:14:16;23.70;43.10
1936;DHT22;969;49.892;10.896;2022-09-03T07:16:43;23.70;43.10
1936;DHT22;969;49.892;10.896;2022-09-03T07:19:11;23.70;43.20
1936;DHT22;969;49.892;10.896;2022-09-03T07:21:40;23.70;43.20
1936;DHT22;969;49.892;10.896;2022-09-03T07:24:07;23.70;43.10
1936;DHT22;969;49.892;10.896;2022-09-03T07:26:36;23.70;43.10
1936;DHT22;969;49.892;10.896;2022-09-03T07:29:06;23.70;43.00
1936;DHT22;969;49.892;10.896;2022-09-03T07:31:35;23.70;42.90
1936;DHT22;969;49.892;10.896;2022-09-03T07:34:08;23.70;42.90
1936;DHT22;969;49.892;10.896;2022-09-03T07:36:45;23.70;43.00
1936;DHT22;969;49.892;10.896;2022-09-03T07:39:14;23.70;43.00
1936;DHT22;969;49.892;10.896;2022-09-03T07:41:42;23.70;43.00
1936;DHT22;969;49.892;10.896;2022-09-03T07:44:14;23.70;43.00
1936;DHT22;969;49.892;10.896;2022-09-03T07:46:44;23.70;43.00
1936;DHT22;969;49.892;10.896;2022-09-03T07:49:27;23.70;43.00
1936;DHT22;969;49.892;10.896;2022-09-03T07:58:28;23.70;43.00
1936;DHT22;969;49.892;10.896;2022-09-03T08:00:55;23.60;42.90
1936;DHT22;969;49.892;10.896;2022-09-03T08:03:21;23.60;43.00
1936;DHT22;969;49.892;10.896;2022-09-03T08:05:48;23.60;43.00
1936;DHT22;969;49.892;10.896;2022-09-03T08:08:16;23.60;43.00
1936;DHT22;969;49.892;10.896;2022-09-03T08:10:42;23.60;42.90
1936;DHT22;969;49.892;10.896;2022-09-03T08:13:09;23.60;42.90
1936;DHT22;969;49.892;10.896;2022-09-03T08:15:36;23.60;42.90
1936;DHT22;969;49.892;10.896;2022-09-03T08:18:05;23.60;42.90
1936;DHT22;969;49.892;10.896;2022-09-03T08:20:32;23.60;42.90
1936;DHT22;969;49.892;10.896;2022-09-03T08:23:01;23.60;42.90
1936;DHT22;969;49.892;10.896;2022-09-03T08:25:28;23.60;42.80
1936;DHT22;969;49.892;10.896;2022-09-03T08:27:57;23.60;42.80
1936;DHT22;969;49.892;10.896;2022-09-03T08:30:26;23.60;42.80
1936;DHT22;969;49.892;10.896;2022-09-03T08:33:00;23.60;42.90
1936;DHT22;969;49.892;10.896;2022-09-03T08:35:26;23.60;42.80
1936;DHT22;969;49.892;10.896;2022-09-03T08:37:52;23.60;42.80
1936;DHT22;969;49.892;10.896;2022-09-03T08:40:21;23.60;42.80
1936;DHT22;969;49.892;10.896;2022-09-03T08:43:04;23.60;42.80
1936;DHT22;969;49.892;10.896;2022-09-03T08:45:41;23.60;42.80
1936;DHT22;969;49.892;10.896;2022-09-03T08:48:28;23.60;42.80
1936;DHT22;969;49.892;10.896;2022-09-03T08:50:58;23.60;42.90
1936;DHT22;969;49.892;10.896;2022-09-03T08:53:37;23.60;43.00
1936;DHT22;969;49.892;10.896;2022-09-03T08:56:11;23.60;43.00
1936;DHT22;969;49.892;10.896;2022-09-03T08:58:38;23.60;43.00
1936;DHT22;969;49.892;10.896;2022-09-03T09:06:35;23.60;42.90
1936;DHT22;969;49.892;10.896;2022-09-03T09:18:53;23.60;43.00
1936;DHT22;969;49.892;10.896;2022-09-03T09:21:26;23.60;43.00
1936;DHT22;969;49.892;10.896;2022-09-03T09:24:00;23.60;43.00
1936;DHT22;969;49.892;10.896;2022-09-03T09:26:40;23.60;43.00
1936;DHT22;969;49.892;10.896;2022-09-03T09:29:08;23.60;43.00
1936;DHT22;969;49.892;10.896;2022-09-03T09:31:37;23.60;43.00
1936;DHT22;969;49.892;10.896;2022-09-03T09:34:07;23.70;43.10
1936;DHT22;969;49.892;10.896;2022-09-03T09:36:47;23.70;43.10
1936;DHT22;969;49.892;10.896;2022-09-03T09:39:14;23.70;43.00
1936;DHT22;969;49.892;10.896;2022-09-03T09:41:59;23.70;43.00
1936;DHT22;969;49.892;10.896;2022-09-03T09:44:36;23.70;43.10
1936;DHT22;969;49.892;10.896;2022-09-03T09:47:27;23.70;43.00
1936;DHT22;969;49.892;10.896;2022-09-03T09:49:55;23.70;43.10
1936;DHT22;969;49.892;10.896;2022-09-03T09:52:24;23.70;43.10
1936;DHT22;969;49.892;10.896;2022-09-03T09:54:52;23.70;43.10
1936;DHT22;969;49.892;10.896;2022-09-03T09:57:23;23.70;43.10
1936;DHT22;969;49.892;10.896;2022-09-03T10:00:02;23.80;43.10
1936;DHT22;969;49.892;10.896;2022-09-03T10:03:00;23.80;43.10
1936;DHT22;969;49.892;10.896;2022-09-03T10:06:11;23.80;43.10
1936;DHT22;969;49.892;10.896;2022-09-03T10:09:13;23.80;43.10
1936;DHT22;969;49.892;10.896;2022-09-03T10:11:47;23.80;43.10
1936;DHT22;969;49.892;10.896;2022-09-03T10:14:35;23.80;43.10
1936;DHT22;969;49.892;10.896;2022-09-03T10:17:26;23.80;43.00
1936;DHT22;969;49.892;10.896;2022-09-03T10:20:23;23.80;43.00
1936;DHT22;969;49.892;10.896;2022-09-03T10:26:13;23.80;43.10
1936;DHT22;969;49.892;10.896;2022-09-03T10:28:47;23.80;43.10
1936;DHT22;969;49.892;10.896;2022-09-03T10:34:37;23.80;43.10
1936;DHT22;969;49.892;10.896;2022-09-03T10:37:33;23.90;43.10
1936;DHT22;969;49.892;10.896;2022-09-03T10:52:06;23.90;43.10
1936;DHT22;969;49.892;10.896;2022-09-03T11:00:11;23.90;43.10
1936;DHT22;969;49.892;10.896;2022-09-03T11:05:30;23.90;43.10
1936;DHT22;969;49.892;10.896;2022-09-03T11:10:34;23.90;43.10
1936;DHT22;969;49.892;10.896;2022-09-03T11:13:11;23.90;43.10
1936;DHT22;969;49.892;10.896;2022-09-03T11:18:23;23.90;43.20
1936;DHT22;969;49.892;10.896;2022-09-03T11:20:56;23.90;43.20
1936;DHT22;969;49.892;10.896;2022-09-03T11:23:27;23.90;43.20
1936;DHT22;969;49.892;10.896;2022-09-03T11:25:56;24.00;43.30
1936;DHT22;969;49.892;10.896;2022-09-03T11:34:10;24.00;43.30
1936;DHT22;969;49.892;10.896;2022-09-03T11:36:41;24.00;43.30
1936;DHT22;969;49.892;10.896;2022-09-03T11:39:58;24.00;43.30
1936;DHT22;969;49.892;10.896;2022-09-03T11:42:35;24.00;43.30
1936;DHT22;969;49.892;10.896;2022-09-03T11:56:40;24.00;43.30
1936;DHT22;969;49.892;10.896;2022-09-03T11:59:27;24.00;43.30
1936;DHT22;969;49.892;10.896;2022-09-03T12:14:05;24.00;43.30
1936;DHT22;969;49.892;10.896;2022-09-03T12:19:48;24.00;43.40
1936;DHT22;969;49.892;10.896;2022-09-03T12:22:17;24.00;43.30
1936;DHT22;969;49.892;10.896;2022-09-03T12:24:44;24.00;43.40
1936;DHT22;969;49.892;10.896;2022-09-03T12:27:19;24.00;43.40
1936;DHT22;969;49.892;10.896;2022-09-03T12:30:18;24.00;43.40
1936;DHT22;969;49.892;10.896;2022-09-03T12:33:06;24.10;43.50
1936;DHT22;969;49.892;10.896;2022-09-03T12:35:32;24.00;43.40
1936;DHT22;969;49.892;10.896;2022-09-03T12:38:01;24.10;43.50
1936;DHT22;969;49.892;10.896;2022-09-03T12:40:29;24.10;43.50
1936;DHT22;969;49.892;10.896;2022-09-03T12:43:15;24.10;43.50
1936;DHT22;969;49.892;10.896;2022-09-03T12:45:47;24.10;43.50
1936;DHT22;969;49.892;10.896;2022-09-03T12:48:22;24.10;43.50
1936;DHT22;969;49.892;10.896;2022-09-03T12:51:09;24.10;43.50
1936;DHT22;969;49.892;10.896;2022-09-03T12:53:38;24.10;43.50
1936;DHT22;969;49.892;10.896;2022-09-03T12:56:05;24.10;43.60
1936;DHT22;969;49.892;10.896;2022-09-03T13:01:28;24.10;43.60
1936;DHT22;969;49.892;10.896;2022-09-03T13:04:02;24.10;43.60
1936;DHT22;969;49.892;10.896;2022-09-03T13:07:33;24.10;43.60
1936;DHT22;969;49.892;10.896;2022-09-03T13:10:00;24.10;43.70
1936;DHT22;969;49.892;10.896;2022-09-03T13:12:33;24.10;43.70
1936;DHT22;969;49.892;10.896;2022-09-03T13:18:36;24.10;43.80
1936;DHT22;969;49.892;10.896;2022-09-03T13:21:56;24.10;43.80
1936;DHT22;969;49.892;10.896;2022-09-03T13:30:22;24.10;44.00
1936;DHT22;969;49.892;10.896;2022-09-03T13:33:20;24.20;44.20
1936;DHT22;969;49.892;10.896;2022-09-03T13:36:08;24.20;44.10
1936;DHT22;969;49.892;10.896;2022-09-03T13:42:39;24.20;44.20
1936;DHT22;969;49.892;10.896;2022-09-03T13:45:16;24.20;44.20
1936;DHT22;969;49.892;10.896;2022-09-03T13:52:07;24.10;44.20
1936;DHT22;969;49.892;10.896;2022-09-03T13:54:41;24.20;44.50
1936;DHT22;969;49.892;10.896;2022-09-03T13:57:39;24.10;44.50
1936;DHT22;969;49.892;10.896;2022-09-03T14:01:22;24.20;44.50
1936;DHT22;969;49.892;10.896;2022-09-03T14:04:01;24.20;44.50
1936;DHT22;969;49.892;10.896;2022-09-03T14:15:07;24.20;44.60
1936;DHT22;969;49.892;10.896;2022-09-03T14:17:58;24.20;44.60
1936;DHT22;969;49.892;10.896;2022-09-03T14:20:32;24.20;44.60
1936;DHT22;969;49.892;10.896;2022-09-03T14:25:33;24.20;44.50
1936;DHT22;969;49.892;10.896;2022-09-03T14:28:26;24.20;44.50
1936;DHT22;969;49.892;10.896;2022-09-03T14:31:24;24.20;44.50
1936;DHT22;969;49.892;10.896;2022-09-03T14:36:36;24.20;44.50
1936;DHT22;969;49.892;10.896;2022-09-03T14:42:23;24.30;44.60
1936;DHT22;969;49.892;10.896;2022-09-03T14:48:58;24.20;44.60
1936;DHT22;969;49.892;10.896;2022-09-03T14:51:51;24.20;44.60
1936;DHT22;969;49.892;10.896;2022-09-03T14:54:43;24.20;44.60
1936;DHT22;969;49.892;10.896;2022-09-03T15:12:50;24.20;44.80
1936;DHT22;969;49.892;10.896;2022-09-03T15:21:25;24.20;44.80
1936;DHT22;969;49.892;10.896;2022-09-03T15:24:12;24.20;44.80
1936;DHT22;969;49.892;10.896;2022-09-03T15:30:01;24.30;44.90
1936;DHT22;969;49.892;10.896;2022-09-03T15:32:50;24.30;44.90
1936;DHT22;969;49.892;10.896;2022-09-03T15:35:53;24.30;44.90
1936;DHT22;969;49.892;10.896;2022-09-03T15:38:54;24.30;45.00
1936;DHT22;969;49.892;10.896;2022-09-03T15:42:00;24.20;44.90
1936;DHT22;969;49.892;10.896;2022-09-03T15:44:47;24.30;45.00
1936;DHT22;969;49.892;10.896;2022-09-03T15:48:00;24.30;45.00
1936;DHT22;969;49.892;10.896;2022-09-03T15:50:40;24.20;44.90
1936;DHT22;969;49.892;10.896;2022-09-03T15:53:26;24.20;44.90
1936;DHT22;969;49.892;10.896;2022-09-03T15:59:30;24.30;45.00
1936;DHT22;969;49.892;10.896;2022-09-03T16:02:20;24.30;45.10
1936;DHT22;969;49.892;10.896;2022-09-03T16:17:35;24.30;45.20
1936;DHT22;969;49.892;10.896;2022-09-03T16:20:25;24.20;45.20
1936;DHT22;969;49.892;10.896;2022-09-03T16:23:20;24.30;45.50
1936;DHT22;969;49.892;10.896;2022-09-03T16:26:17;24.20;45.20
1936;DHT22;969;49.892;10.896;2022-09-03T16:28:52;24.30;45.40
1936;DHT22;969;49.892;10.896;2022-09-03T16:51:18;24.30;45.40
1936;DHT22;969;49.892;10.896;2022-09-03T16:54:09;24.30;46.30
1936;DHT22;969;49.892;10.896;2022-09-03T17:09:22;24.30;45.90
1936;DHT22;969;49.892;10.896;2022-09-03T17:12:07;24.30;45.80
1936;DHT22;969;49.892;10.896;2022-09-03T17:21:55;24.30;46.00
1936;DHT22;969;49.892;10.896;2022-09-03T17:24:42;24.30;46.00
1936;DHT22;969;49.892;10.896;2022-09-03T17:36:01;24.40;46.30
1936;DHT22;969;49.892;10.896;2022-09-03T17:47:05;24.40;46.40
1936;DHT22;969;49.892;10.896;2022-09-03T17:49:49;24.40;46.80
1936;DHT22;969;49.892;10.896;2022-09-03T17:52:38;24.40;47.00
1936;DHT22;969;49.892;10.896;2022-09-03T17:55:59;24.40;46.60
1936;DHT22;969;49.892;10.896;2022-09-03T17:58:42;24.40;46.80
1936;DHT22;969;49.892;10.896;2022-09-03T18:01:22;24.30;46.60
1936;DHT22;969;49.892;10.896;2022-09-03T18:04:41;24.40;46.70
1936;DHT22;969;49.892;10.896;2022-09-03T18:25:28;24.30;46.70
1936;DHT22;969;49.892;10.896;2022-09-03T18:28:34;24.30;46.80
1936;DHT22;969;49.892;10.896;2022-09-03T18:31:21;24.30;47.20
1936;DHT22;969;49.892;10.896;2022-09-03T18:34:12;24.30;47.30
1936;DHT22;969;49.892;10.896;2022-09-03T18:56:54;24.30;47.50
1936;DHT22;969;49.892;10.896;2022-09-03T19:10:03;24.30;47.60
1936;DHT22;969;49.892;10.896;2022-09-03T19:22:45;24.30;47.90
1936;DHT22;969;49.892;10.896;2022-09-03T19:25:30;24.30;47.70
1936;DHT22;969;49.892;10.896;2022-09-03T19:28:27;24.30;47.50
1936;DHT22;969;49.892;10.896;2022-09-03T19:31:34;24.30;47.30
1936;DHT22;969;49.892;10.896;2022-09-03T19:41:00;24.30;47.90
1936;DHT22;969;49.892;10.896;2022-09-03T19:47:01;24.30;48.00
1936;DHT22;969;49.892;10.896;2022-09-03T19:53:17;24.30;47.60
1936;DHT22;969;49.892;10.896;2022-09-03T19:56:18;24.30;47.60
1936;DHT22;969;49.892;10.896;2022-09-03T19:59:33;24.30;47.60
1936;DHT22;969;49.892;10.896;2022-09-03T20:02:24;24.30;47.60
1936;DHT22;969;49.892;10.896;2022-09-03T20:05:32;24.30;47.70
1936;DHT22;969;49.892;10.896;2022-09-03T20:08:19;24.30;47.70
1936;DHT22;969;49.892;10.896;2022-09-03T20:14:35;24.30;47.70
1936;DHT22;969;49.892;10.896;2022-09-03T20:20:30;24.30;47.80
1936;DHT22;969;49.892;10.896;2022-09-03T20:23:29;24.30;47.50
1936;DHT22;969;49.892;10.896;2022-09-03T20:29:23;24.30;47.50
1936;DHT22;969;49.892;10.896;2022-09-03T20:35:17;24.30;47.90
1936;DHT22;969;49.892;10.896;2022-09-03T20:53:49;24.30;47.80
1936;DHT22;969;49.892;10.896;2022-09-03T21:08:47;24.30;47.90
1936;DHT22;969;49.892;10.896;2022-09-03T21:11:37;24.30;47.60
1936;DHT22;969;49.892;10.896;2022-09-03T21:23:12;24.30;47.90
1936;DHT22;969;49.892;10.896;2022-09-03T21:25:51;24.30;48.10
1936;DHT22;969;49.892;10.896;2022-09-03T21:30:49;24.30;47.90
1936;DHT22;969;49.892;10.896;2022-09-03T21:33:37;24.30;47.90
1936;DHT22;969;49.892;10.896;2022-09-03T21:36:09;24.30;48.00
1936;DHT22;969;49.892;10.896;2022-09-03T21:38:38;24.30;47.90
1936;DHT22;969;49.892;10.896;2022-09-03T21:43:49;24.30;47.90
1936;DHT22;969;49.892;10.896;2022-09-03T21:51:30;24.30;48.10
1936;DHT22;969;49.892;10.896;2022-09-03T21:54:21;24.40;47.90
1936;DHT22;969;49.892;10.896;2022-09-03T22:00:03;24.40;48.00
1936;DHT22;969;49.892;10.896;2022-09-03T22:02:31;24.30;48.00
1936;DHT22;969;49.892;10.896;2022-09-03T22:04:58;24.30;47.90
1936;DHT22;969;49.892;10.896;2022-09-03T22:07:47;24.30;47.90
1936;DHT22;969;49.892;10.896;2022-09-03T22:10:43;24.30;47.90
1936;DHT22;969;49.892;10.896;2022-09-03T22:13:30;24.30;48.00
1936;DHT22;969;49.892;10.896;2022-09-03T22:16:16;24.30;48.00
1936;DHT22;969;49.892;10.896;2022-09-03T22:18:44;24.30;48.00
1936;DHT22;969;49.892;10.896;2022-09-03T22:21:32;24.30;48.00
1936;DHT22;969;49.892;10.896;2022-09-03T22:24:17;24.30;47.90
1936;DHT22;969;49.892;10.896;2022-09-03T22:27:12;24.30;47.90
1936;DHT22;969;49.892;10.896;2022-09-03T22:43:41;24.30;47.90
1936;DHT22;969;49.892;10.896;2022-09-03T22:46:26;24.30;47.90
1936;DHT22;969;49.892;10.896;2022-09-03T22:58:14;24.30;48.70
1936;DHT22;969;49.892;10.896;2022-09-03T23:00:58;24.30;48.70
1936;DHT22;969;49.892;10.896;2022-09-03T23:07:16;24.20;48.60
1936;DHT22;969;49.892;10.896;2022-09-03T23:09:53;24.20;48.50
1936;DHT22;969;49.892;10.896;2022-09-03T23:12:42;24.20;48.50
1936;DHT22;969;49.892;10.896;2022-09-03T23:15:20;24.20;48.50
1936;DHT22;969;49.892;10.896;2022-09-03T23:18:10;24.30;48.50
1936;DHT22;969;49.892;10.896;2022-09-03T23:20:43;24.30;48.70
1936;DHT22;969;49.892;10.896;2022-09-03T23:23:44;24.30;48.50
1936;DHT22;969;49.892;10.896;2022-09-03T23:26:35;24.30;48.60
1936;DHT22;969;49.892;10.896;2022-09-03T23:31:49;24.30;48.50
1936;DHT22;969;49.892;10.896;2022-09-03T23:34:17;24.30;48.70
1936;DHT22;969;49.892;10.896;2022-09-03T23:36:48;24.30;48.70
1936;DHT22;969;49.892;10.896;2022-09-03T23:48:27;24.30;48.70
1936;DHT22;969;49.892;10.896;2022-09-03T23:59:42;24.30;48.60
